sensor_id;sensor_type;location;lat;lon;timestamp;temperature;humidity
10175;DHT22;18221;38.704;0.152;2024-01-11T00:00:53;11.20;99.90
10175;DHT22;18221;38.704;0.152;2024-01-11T00:03:21;11.30;99.90
10175;DHT22;18221;38.704;0.152;2024-01-11T00:05:49;11.30;99.90
10175;DHT22;18221;38.704;0.152;2024-01-11T00:08:17;11.30;99.90
10175;DHT22;18221;38.704;0.152;2024-01-11T00:10:45;11.30;99.90
10175;DHT22;18221;38.704;0.152;2024-01-11T00:13:14;11.20;99.90
10175;DHT22;18221;38.704;0.152;2024-01-11T00:15:42;11.30;99.90
10175;DHT22;18221;38.704;0.152;2024-01-11T00:18:11;11.20;99.90
10175;DHT22;18221;38.704;0.152;2024-01-11T00:20:39;11.20;99.90
10175;DHT22;18221;38.704;0.152;2024-01-11T00:23:07;11.20;99.90
10175;DHT22;18221;38.704;0.152;2024-01-11T00:25:34;11.20;99.90
10175;DHT22;18221;38.704;0.152;2024-01-11T00:28:03;11.30;99.90
10175;DHT22;18221;38.704;0.152;2024-01-11T00:30:32;11.30;99.90
10175;DHT22;18221;38.704;0.152;2024-01-11T00:33:00;11.30;99.90
10175;DHT22;18221;38.704;0.152;2024-01-11T00:35:28;11.30;99.90
10175;DHT22;18221;38.704;0.152;2024-01-11T00:37:56;11.20;99.90
10175;DHT22;18221;38.704;0.152;2024-01-11T00:40:24;11.20;99.90
10175;DHT22;18221;38.704;0.152;2024-01-11T00:42:52;11.20;99.90
10175;DHT22;18221;38.704;0.152;2024-01-11T00:45:20;11.20;99.90
10175;DHT22;18221;38.704;0.152;2024-01-11T00:47:49;11.20;99.90
10175;DHT22;18221;38.704;0.152;2024-01-11T01:03:16;11.10;99.90
10175;DHT22;18221;38.704;0.152;2024-01-11T01:05:44;11.10;99.90
10175;DHT22;18221;38.704;0.152;2024-01-11T01:08:13;11.10;99.90
10175;DHT22;18221;38.704;0.152;2024-01-11T01:10:41;11.10;99.90
10175;DHT22;18221;38.704;0.152;2024-01-11T01:13:09;11.10;99.90
10175;DHT22;18221;38.704;0.152;2024-01-11T01:15:37;11.10;99.90
10175;DHT22;18221;38.704;0.152;2024-01-11T01:18:05;11.10;99.90
10175;DHT22;18221;38.704;0.152;2024-01-11T01:20:35;11.10;99.90
10175;DHT22;18221;38.704;0.152;2024-01-11T01:23:03;11.10;99.90
10175;DHT22;18221;38.704;0.152;2024-01-11T01:25:31;11.10;99.90
10175;DHT22;18221;38.704;0.152;2024-01-11T01:27:59;11.10;99.90
10175;DHT22;18221;38.704;0.152;2024-01-11T01:30:27;11.10;99.90
10175;DHT22;18221;38.704;0.152;2024-01-11T01:32:55;11.10;99.90
10175;DHT22;18221;38.704;0.152;2024-01-11T01:35:23;11.10;99.90
10175;DHT22;18221;38.704;0.152;2024-01-11T01:37:53;11.00;99.90
10175;DHT22;18221;38.704;0.152;2024-01-11T01:40:21;11.00;99.90
10175;DHT22;18221;38.704;0.152;2024-01-11T01:42:48;11.00;99.90
10175;DHT22;18221;38.704;0.152;2024-01-11T01:45:16;10.90;99.90
10175;DHT22;18221;38.704;0.152;2024-01-11T01:47:44;10.90;99.90
10175;DHT22;18221;38.704;0.152;2024-01-11T01:50:13;10.90;99.90
10175;DHT22;18221;38.704;0.152;2024-01-11T01:52:41;10.90;99.90
10175;DHT22;18221;38.704;0.152;2024-01-11T01:55:12;10.90;99.90
10175;DHT22;18221;38.704;0.152;2024-01-11T01:57:44;10.90;99.90
10175;DHT22;18221;38.704;0.152;2024-01-11T02:00:14;10.90;99.90
10175;DHT22;18221;38.704;0.152;2024-01-11T02:02:43;10.80;99.90
10175;DHT22;18221;38.704;0.152;2024-01-11T02:05:13;10.90;99.90
10175;DHT22;18221;38.704;0.152;2024-01-11T02:07:44;10.80;99.90
10175;DHT22;18221;38.704;0.152;2024-01-11T02:10:13;10.80;99.90
10175;DHT22;18221;38.704;0.152;2024-01-11T02:12:42;10.80;99.90
10175;DHT22;18221;38.704;0.152;2024-01-11T02:15:10;10.80;99.90
10175;DHT22;18221;38.704;0.152;2024-01-11T02:17:40;10.80;99.90
10175;DHT22;18221;38.704;0.152;2024-01-11T02:20:10;10.80;99.90
10175;DHT22;18221;38.704;0.152;2024-01-11T02:22:42;10.80;99.90
10175;DHT22;18221;38.704;0.152;2024-01-11T02:25:16;10.80;99.90
10175;DHT22;18221;38.704;0.152;2024-01-11T02:27:47;10.80;99.90
10175;DHT22;18221;38.704;0.152;2024-01-11T02:30:17;10.70;99.90
10175;DHT22;18221;38.704;0.152;2024-01-11T02:32:46;10.70;99.90
10175;DHT22;18221;38.704;0.152;2024-01-11T02:35:16;10.70;99.90
10175;DHT22;18221;38.704;0.152;2024-01-11T02:37:45;10.70;99.90
10175;DHT22;18221;38.704;0.152;2024-01-11T02:40:15;10.70;99.90
10175;DHT22;18221;38.704;0.152;2024-01-11T02:42:43;10.70;99.90
10175;DHT22;18221;38.704;0.152;2024-01-11T02:45:11;10.60;99.90
10175;DHT22;18221;38.704;0.152;2024-01-11T02:47:39;10.60;99.90
10175;DHT22;18221;38.704;0.152;2024-01-11T02:50:08;10.60;99.90
10175;DHT22;18221;38.704;0.152;2024-01-11T02:52:37;10.60;99.90
10175;DHT22;18221;38.704;0.152;2024-01-11T02:55:05;10.60;99.90
10175;DHT22;18221;38.704;0.152;2024-01-11T02:57:36;10.60;99.90
10175;DHT22;18221;38.704;0.152;2024-01-11T03:00:04;10.60;99.90
10175;DHT22;18221;38.704;0.152;2024-01-11T03:02:33;10.60;99.90
10175;DHT22;18221;38.704;0.152;2024-01-11T03:05:01;10.60;99.90
10175;DHT22;18221;38.704;0.152;2024-01-11T03:07:30;10.60;99.90
10175;DHT22;18221;38.704;0.152;2024-01-11T03:09:58;10.60;99.90
10175;DHT22;18221;38.704;0.152;2024-01-11T03:12:26;10.60;99.90
10175;DHT22;18221;38.704;0.152;2024-01-11T03:14:56;10.60;99.90
10175;DHT22;18221;38.704;0.152;2024-01-11T03:17:24;10.60;99.90
10175;DHT22;18221;38.704;0.152;2024-01-11T03:19:52;10.60;99.90
10175;DHT22;18221;38.704;0.152;2024-01-11T03:22:20;10.60;99.90
10175;DHT22;18221;38.704;0.152;2024-01-11T03:24:47;10.50;99.90
10175;DHT22;18221;38.704;0.152;2024-01-11T03:27:16;10.60;99.90
10175;DHT22;18221;38.704;0.152;2024-01-11T03:29:44;10.60;99.90
10175;DHT22;18221;38.704;0.152;2024-01-11T03:32:13;10.60;99.90
10175;DHT22;18221;38.704;0.152;2024-01-11T03:34:41;10.50;99.90
10175;DHT22;18221;38.704;0.152;2024-01-11T03:37:09;10.50;99.90
10175;DHT22;18221;38.704;0.152;2024-01-11T03:39:37;10.60;99.90
10175;DHT22;18221;38.704;0.152;2024-01-11T03:42:05;10.60;99.90
10175;DHT22;18221;38.704;0.152;2024-01-11T03:44:35;10.60;99.90
10175;DHT22;18221;38.704;0.152;2024-01-11T03:47:04;10.60;99.90
10175;DHT22;18221;38.704;0.152;2024-01-11T03:49:33;10.60;99.90
10175;DHT22;18221;38.704;0.152;2024-01-11T03:52:01;10.60;99.90
10175;DHT22;18221;38.704;0.152;2024-01-11T03:54:29;10.60;99.90
10175;DHT22;18221;38.704;0.152;2024-01-11T03:56:57;10.60;99.90
10175;DHT22;18221;38.704;0.152;2024-01-11T03:59:25;10.60;99.90
10175;DHT22;18221;38.704;0.152;2024-01-11T04:01:53;10.60;99.90
10175;DHT22;18221;38.704;0.152;2024-01-11T04:04:21;10.60;99.90
10175;DHT22;18221;38.704;0.152;2024-01-11T04:06:51;10.60;99.90
10175;DHT22;18221;38.704;0.152;2024-01-11T04:09:19;10.60;99.90
10175;DHT22;18221;38.704;0.152;2024-01-11T04:11:47;10.50;99.90
10175;DHT22;18221;38.704;0.152;2024-01-11T04:14:15;10.50;99.90
10175;DHT22;18221;38.704;0.152;2024-01-11T04:16:43;10.50;99.90
10175;DHT22;18221;38.704;0.152;2024-01-11T04:19:11;10.50;99.90
10175;DHT22;18221;38.704;0.152;2024-01-11T04:21:40;10.50;99.90
10175;DHT22;18221;38.704;0.152;2024-01-11T04:24:09;10.40;99.90
10175;DHT22;18221;38.704;0.152;2024-01-11T04:26:37;10.40;99.90
10175;DHT22;18221;38.704;0.152;2024-01-11T04:29:05;10.40;99.90
10175;DHT22;18221;38.704;0.152;2024-01-11T04:31:33;10.40;99.90
10175;DHT22;18221;38.704;0.152;2024-01-11T04:34:01;10.40;99.90
10175;DHT22;18221;38.704;0.152;2024-01-11T04:36:29;10.40;99.90
10175;DHT22;18221;38.704;0.152;2024-01-11T04:38:57;10.40;99.90
10175;DHT22;18221;38.704;0.152;2024-01-11T04:41:27;10.30;99.90
10175;DHT22;18221;38.704;0.152;2024-01-11T04:43:55;10.30;99.90
10175;DHT22;18221;38.704;0.152;2024-01-11T04:46:23;10.30;99.90
10175;DHT22;18221;38.704;0.152;2024-01-11T04:48:51;10.30;99.90
10175;DHT22;18221;38.704;0.152;2024-01-11T04:51:19;10.40;99.90
10175;DHT22;18221;38.704;0.152;2024-01-11T04:53:48;10.30;99.90
10175;DHT22;18221;38.704;0.152;2024-01-11T04:56:17;10.30;99.90
10175;DHT22;18221;38.704;0.152;2024-01-11T04:58:46;10.30;99.90
10175;DHT22;18221;38.704;0.152;2024-01-11T05:01:15;10.30;99.90
10175;DHT22;18221;38.704;0.152;2024-01-11T05:03:45;10.30;99.90
10175;DHT22;18221;38.704;0.152;2024-01-11T05:06:17;10.30;99.90
10175;DHT22;18221;38.704;0.152;2024-01-11T05:08:45;10.30;99.90
10175;DHT22;18221;38.704;0.152;2024-01-11T05:11:17;10.30;99.90
10175;DHT22;18221;38.704;0.152;2024-01-11T05:13:47;10.30;99.90
10175;DHT22;18221;38.704;0.152;2024-01-11T05:16:19;10.30;99.90
10175;DHT22;18221;38.704;0.152;2024-01-11T05:18:48;10.40;99.90
10175;DHT22;18221;38.704;0.152;2024-01-11T05:21:16;10.40;99.90
10175;DHT22;18221;38.704;0.152;2024-01-11T05:23:44;10.40;99.90
10175;DHT22;18221;38.704;0.152;2024-01-11T05:26:14;10.40;99.90
10175;DHT22;18221;38.704;0.152;2024-01-11T05:28:43;10.40;99.90
10175;DHT22;18221;38.704;0.152;2024-01-11T05:31:14;10.40;99.90
10175;DHT22;18221;38.704;0.152;2024-01-11T05:33:43;10.40;99.90
10175;DHT22;18221;38.704;0.152;2024-01-11T05:36:11;10.40;99.90
10175;DHT22;18221;38.704;0.152;2024-01-11T05:38:40;10.30;99.90
10175;DHT22;18221;38.704;0.152;2024-01-11T05:41:08;10.30;99.90
10175;DHT22;18221;38.704;0.152;2024-01-11T05:43:37;10.10;99.90
10175;DHT22;18221;38.704;0.152;2024-01-11T05:46:06;10.30;99.90
10175;DHT22;18221;38.704;0.152;2024-01-11T05:48:36;10.30;99.90
10175;DHT22;18221;38.704;0.152;2024-01-11T05:51:04;10.30;99.90
10175;DHT22;18221;38.704;0.152;2024-01-11T05:53:32;10.30;99.90
10175;DHT22;18221;38.704;0.152;2024-01-11T05:56:01;10.40;99.90
10175;DHT22;18221;38.704;0.152;2024-01-11T05:58:30;10.40;99.90
10175;DHT22;18221;38.704;0.152;2024-01-11T06:00:58;10.30;99.90
10175;DHT22;18221;38.704;0.152;2024-01-11T06:03:26;10.30;99.90
10175;DHT22;18221;38.704;0.152;2024-01-11T06:05:58;10.20;99.90
10175;DHT22;18221;38.704;0.152;2024-01-11T06:08:26;10.30;99.90
10175;DHT22;18221;38.704;0.152;2024-01-11T06:10:54;10.30;99.90
10175;DHT22;18221;38.704;0.152;2024-01-11T06:13:22;10.30;99.90
10175;DHT22;18221;38.704;0.152;2024-01-11T06:15:50;10.30;99.90
10175;DHT22;18221;38.704;0.152;2024-01-11T06:18:18;10.30;99.90
10175;DHT22;18221;38.704;0.152;2024-01-11T06:20:46;10.30;99.90
10175;DHT22;18221;38.704;0.152;2024-01-11T06:23:16;10.30;99.90
10175;DHT22;18221;38.704;0.152;2024-01-11T06:25:45;10.30;99.90
10175;DHT22;18221;38.704;0.152;2024-01-11T06:28:13;10.20;99.90
10175;DHT22;18221;38.704;0.152;2024-01-11T06:30:41;10.30;99.90
10175;DHT22;18221;38.704;0.152;2024-01-11T06:33:10;10.20;99.90
10175;DHT22;18221;38.704;0.152;2024-01-11T06:35:38;10.20;99.90
10175;DHT22;18221;38.704;0.152;2024-01-11T06:38:06;10.20;99.90
10175;DHT22;18221;38.704;0.152;2024-01-11T06:40:35;10.20;99.90
10175;DHT22;18221;38.704;0.152;2024-01-11T06:43:04;10.30;99.90
10175;DHT22;18221;38.704;0.152;2024-01-11T06:45:31;10.30;99.90
10175;DHT22;18221;38.704;0.152;2024-01-11T06:47:59;10.30;99.90
10175;DHT22;18221;38.704;0.152;2024-01-11T06:50:27;10.30;99.90
10175;DHT22;18221;38.704;0.152;2024-01-11T06:52:55;10.30;99.90
10175;DHT22;18221;38.704;0.152;2024-01-11T06:55:23;10.30;99.90
10175;DHT22;18221;38.704;0.152;2024-01-11T06:57:52;10.40;99.90
10175;DHT22;18221;38.704;0.152;2024-01-11T07:00:20;10.30;99.90
10175;DHT22;18221;38.704;0.152;2024-01-11T07:02:48;10.30;99.90
10175;DHT22;18221;38.704;0.152;2024-01-11T07:05:17;10.30;99.90
10175;DHT22;18221;38.704;0.152;2024-01-11T07:07:45;10.30;99.90
10175;DHT22;18221;38.704;0.152;2024-01-11T07:10:13;10.30;99.90
10175;DHT22;18221;38.704;0.152;2024-01-11T07:12:41;10.30;99.90
10175;DHT22;18221;38.704;0.152;2024-01-11T07:15:13;10.30;99.90
10175;DHT22;18221;38.704;0.152;2024-01-11T07:17:41;10.30;99.90
10175;DHT22;18221;38.704;0.152;2024-01-11T07:20:10;10.30;99.90
10175;DHT22;18221;38.704;0.152;2024-01-11T07:22:39;10.30;99.90
10175;DHT22;18221;38.704;0.152;2024-01-11T07:25:07;10.30;99.90
10175;DHT22;18221;38.704;0.152;2024-01-11T07:27:35;10.30;99.90
10175;DHT22;18221;38.704;0.152;2024-01-11T07:30:04;10.20;99.90
10175;DHT22;18221;38.704;0.152;2024-01-11T07:32:35;10.20;99.90
10175;DHT22;18221;38.704;0.152;2024-01-11T07:35:04;11.90;99.90
10175;DHT22;18221;38.704;0.152;2024-01-11T07:37:33;10.10;99.90
10175;DHT22;18221;38.704;0.152;2024-01-11T07:40:01;10.00;99.90
10175;DHT22;18221;38.704;0.152;2024-01-11T07:42:29;10.00;99.90
10175;DHT22;18221;38.704;0.152;2024-01-11T07:44:57;9.90;99.90
10175;DHT22;18221;38.704;0.152;2024-01-11T07:47:25;9.80;99.90
10175;DHT22;18221;38.704;0.152;2024-01-11T07:49:55;9.70;99.90
10175;DHT22;18221;38.704;0.152;2024-01-11T07:52:23;9.60;99.90
10175;DHT22;18221;38.704;0.152;2024-01-11T07:54:51;9.60;99.90
10175;DHT22;18221;38.704;0.152;2024-01-11T07:57:20;9.50;99.90
10175;DHT22;18221;38.704;0.152;2024-01-11T07:59:48;9.50;99.90
10175;DHT22;18221;38.704;0.152;2024-01-11T08:02:16;9.30;99.90
10175;DHT22;18221;38.704;0.152;2024-01-11T08:04:44;9.10;99.90
10175;DHT22;18221;38.704;0.152;2024-01-11T08:07:14;8.90;99.90
10175;DHT22;18221;38.704;0.152;2024-01-11T08:09:41;8.90;99.90
10175;DHT22;18221;38.704;0.152;2024-01-11T08:12:11;8.70;99.90
10175;DHT22;18221;38.704;0.152;2024-01-11T08:14:39;8.70;99.90
10175;DHT22;18221;38.704;0.152;2024-01-11T08:17:07;8.60;99.90
10175;DHT22;18221;38.704;0.152;2024-01-11T08:19:36;8.60;99.90
10175;DHT22;18221;38.704;0.152;2024-01-11T08:22:03;8.50;99.90
10175;DHT22;18221;38.704;0.152;2024-01-11T08:24:33;8.60;99.90
10175;DHT22;18221;38.704;0.152;2024-01-11T08:27:02;8.60;99.90
10175;DHT22;18221;38.704;0.152;2024-01-11T08:29:30;8.50;99.90
10175;DHT22;18221;38.704;0.152;2024-01-11T08:31:59;8.60;99.90
10175;DHT22;18221;38.704;0.152;2024-01-11T08:34:30;8.60;99.90
10175;DHT22;18221;38.704;0.152;2024-01-11T08:36:58;8.60;99.90
10175;DHT22;18221;38.704;0.152;2024-01-11T08:39:26;8.60;99.90
10175;DHT22;18221;38.704;0.152;2024-01-11T08:41:55;8.60;99.90
10175;DHT22;18221;38.704;0.152;2024-01-11T08:44:26;8.60;99.90
10175;DHT22;18221;38.704;0.152;2024-01-11T08:46:56;8.60;99.90
10175;DHT22;18221;38.704;0.152;2024-01-11T08:49:25;10.70;99.90
10175;DHT22;18221;38.704;0.152;2024-01-11T08:51:53;8.60;99.90
10175;DHT22;18221;38.704;0.152;2024-01-11T08:54:21;8.70;99.90
10175;DHT22;18221;38.704;0.152;2024-01-11T08:56:49;8.70;99.90
10175;DHT22;18221;38.704;0.152;2024-01-11T08:59:18;8.70;99.90
10175;DHT22;18221;38.704;0.152;2024-01-11T09:01:50;8.60;99.90
10175;DHT22;18221;38.704;0.152;2024-01-11T09:04:19;8.60;99.90
10175;DHT22;18221;38.704;0.152;2024-01-11T09:06:47;8.50;99.90
10175;DHT22;18221;38.704;0.152;2024-01-11T09:09:15;8.60;99.90
10175;DHT22;18221;38.704;0.152;2024-01-11T09:11:43;8.50;99.90
10175;DHT22;18221;38.704;0.152;2024-01-11T09:14:11;8.50;99.90
10175;DHT22;18221;38.704;0.152;2024-01-11T09:16:40;8.60;99.90
10175;DHT22;18221;38.704;0.152;2024-01-11T09:19:10;8.60;99.90
10175;DHT22;18221;38.704;0.152;2024-01-11T09:21:38;8.60;99.90
10175;DHT22;18221;38.704;0.152;2024-01-11T09:24:07;8.60;99.90
10175;DHT22;18221;38.704;0.152;2024-01-11T09:26:35;8.50;99.90
10175;DHT22;18221;38.704;0.152;2024-01-11T09:29:03;8.50;99.90
10175;DHT22;18221;38.704;0.152;2024-01-11T09:31:31;8.50;99.90
10175;DHT22;18221;38.704;0.152;2024-01-11T09:34:00;8.50;99.90
10175;DHT22;18221;38.704;0.152;2024-01-11T09:36:28;8.60;99.90
10175;DHT22;18221;38.704;0.152;2024-01-11T09:38:56;8.60;99.90
10175;DHT22;18221;38.704;0.152;2024-01-11T09:41:24;8.60;99.90
10175;DHT22;18221;38.704;0.152;2024-01-11T09:43:54;8.60;99.90
10175;DHT22;18221;38.704;0.152;2024-01-11T09:46:26;8.60;99.90
10175;DHT22;18221;38.704;0.152;2024-01-11T09:48:55;8.60;99.90
10175;DHT22;18221;38.704;0.152;2024-01-11T09:51:28;8.60;99.90
10175;DHT22;18221;38.704;0.152;2024-01-11T09:53:58;8.70;99.90
10175;DHT22;18221;38.704;0.152;2024-01-11T09:56:27;8.60;99.90
10175;DHT22;18221;38.704;0.152;2024-01-11T09:58:55;8.50;99.90
10175;DHT22;18221;38.704;0.152;2024-01-11T10:01:23;8.50;99.90
10175;DHT22;18221;38.704;0.152;2024-01-11T10:03:53;8.50;99.90
10175;DHT22;18221;38.704;0.152;2024-01-11T10:06:22;8.50;99.90
10175;DHT22;18221;38.704;0.152;2024-01-11T10:08:54;8.50;99.90
10175;DHT22;18221;38.704;0.152;2024-01-11T10:11:22;8.40;99.90
10175;DHT22;18221;38.704;0.152;2024-01-11T10:13:56;8.40;99.90
10175;DHT22;18221;38.704;0.152;2024-01-11T10:16:25;8.40;99.90
10175;DHT22;18221;38.704;0.152;2024-01-11T10:18:55;8.40;99.90
10175;DHT22;18221;38.704;0.152;2024-01-11T10:21:23;8.50;99.90
10175;DHT22;18221;38.704;0.152;2024-01-11T10:23:51;8.50;99.90
10175;DHT22;18221;38.704;0.152;2024-01-11T10:26:21;8.60;99.90
10175;DHT22;18221;38.704;0.152;2024-01-11T10:28:48;8.60;99.90
10175;DHT22;18221;38.704;0.152;2024-01-11T10:31:16;8.60;99.90
10175;DHT22;18221;38.704;0.152;2024-01-11T10:33:45;8.60;99.90
10175;DHT22;18221;38.704;0.152;2024-01-11T10:36:13;8.60;99.90
10175;DHT22;18221;38.704;0.152;2024-01-11T10:38:41;8.60;99.90
10175;DHT22;18221;38.704;0.152;2024-01-11T10:41:18;8.60;99.90
10175;DHT22;18221;38.704;0.152;2024-01-11T10:43:48;8.60;99.90
10175;DHT22;18221;38.704;0.152;2024-01-11T10:46:20;8.60;99.90
10175;DHT22;18221;38.704;0.152;2024-01-11T10:48:56;8.60;99.90
10175;DHT22;18221;38.704;0.152;2024-01-11T10:51:31;8.60;99.90
10175;DHT22;18221;38.704;0.152;2024-01-11T10:54:00;8.60;99.90
10175;DHT22;18221;38.704;0.152;2024-01-11T10:56:32;8.50;99.90
10175;DHT22;18221;38.704;0.152;2024-01-11T10:59:02;8.50;99.90
10175;DHT22;18221;38.704;0.152;2024-01-11T11:01:31;8.50;99.90
10175;DHT22;18221;38.704;0.152;2024-01-11T11:03:59;8.50;99.90
10175;DHT22;18221;38.704;0.152;2024-01-11T11:06:30;8.50;99.90
10175;DHT22;18221;38.704;0.152;2024-01-11T11:09:02;8.60;99.90
10175;DHT22;18221;38.704;0.152;2024-01-11T11:11:35;8.60;99.90
10175;DHT22;18221;38.704;0.152;2024-01-11T11:14:05;8.60;99.90
10175;DHT22;18221;38.704;0.152;2024-01-11T11:16:34;8.50;99.90
10175;DHT22;18221;38.704;0.152;2024-01-11T11:19:02;8.60;99.90
10175;DHT22;18221;38.704;0.152;2024-01-11T11:21:30;8.70;99.90
10175;DHT22;18221;38.704;0.152;2024-01-11T11:23:58;8.70;99.90
10175;DHT22;18221;38.704;0.152;2024-01-11T11:26:26;8.70;99.90
10175;DHT22;18221;38.704;0.152;2024-01-11T11:28:56;8.80;99.90
10175;DHT22;18221;38.704;0.152;2024-01-11T11:31:35;8.90;99.90
10175;DHT22;18221;38.704;0.152;2024-01-11T11:34:04;8.90;99.90
10175;DHT22;18221;38.704;0.152;2024-01-11T11:36:33;8.80;99.90
10175;DHT22;18221;38.704;0.152;2024-01-11T11:39:02;8.70;99.90
10175;DHT22;18221;38.704;0.152;2024-01-11T11:41:31;8.70;99.90
10175;DHT22;18221;38.704;0.152;2024-01-11T11:44:04;8.70;99.90
10175;DHT22;18221;38.704;0.152;2024-01-11T11:46:33;8.80;99.90
10175;DHT22;18221;38.704;0.152;2024-01-11T11:49:06;8.80;99.90
10175;DHT22;18221;38.704;0.152;2024-01-11T11:51:39;8.80;99.90
10175;DHT22;18221;38.704;0.152;2024-01-11T11:54:09;8.80;99.90
10175;DHT22;18221;38.704;0.152;2024-01-11T11:56:40;8.80;99.90
10175;DHT22;18221;38.704;0.152;2024-01-11T11:59:10;8.70;99.90
10175;DHT22;18221;38.704;0.152;2024-01-11T12:01:38;8.70;99.90
10175;DHT22;18221;38.704;0.152;2024-01-11T12:04:08;8.70;99.90
10175;DHT22;18221;38.704;0.152;2024-01-11T12:06:36;8.80;99.90
10175;DHT22;18221;38.704;0.152;2024-01-11T12:09:04;8.80;99.90
10175;DHT22;18221;38.704;0.152;2024-01-11T12:11:32;8.70;99.90
10175;DHT22;18221;38.704;0.152;2024-01-11T12:14:01;8.70;99.90
10175;DHT22;18221;38.704;0.152;2024-01-11T12:16:30;8.70;99.90
10175;DHT22;18221;38.704;0.152;2024-01-11T12:18:58;8.60;99.90
10175;DHT22;18221;38.704;0.152;2024-01-11T12:21:26;8.60;99.90
10175;DHT22;18221;38.704;0.152;2024-01-11T12:23:55;8.50;99.90
10175;DHT22;18221;38.704;0.152;2024-01-11T12:26:23;8.40;99.90
10175;DHT22;18221;38.704;0.152;2024-01-11T12:28:51;8.50;99.90
10175;DHT22;18221;38.704;0.152;2024-01-11T12:31:21;8.40;99.90
10175;DHT22;18221;38.704;0.152;2024-01-11T12:33:51;8.50;99.90
10175;DHT22;18221;38.704;0.152;2024-01-11T12:36:20;8.50;99.90
10175;DHT22;18221;38.704;0.152;2024-01-11T12:38:48;8.60;99.90
10175;DHT22;18221;38.704;0.152;2024-01-11T12:41:16;8.60;99.90
10175;DHT22;18221;38.704;0.152;2024-01-11T12:43:45;8.60;99.90
10175;DHT22;18221;38.704;0.152;2024-01-11T12:46:13;8.60;99.90
10175;DHT22;18221;38.704;0.152;2024-01-11T12:48:41;8.60;99.90
10175;DHT22;18221;38.704;0.152;2024-01-11T12:51:11;8.60;99.90
10175;DHT22;18221;38.704;0.152;2024-01-11T12:53:39;8.70;99.90
10175;DHT22;18221;38.704;0.152;2024-01-11T12:56:07;8.80;99.90
10175;DHT22;18221;38.704;0.152;2024-01-11T12:58:36;9.00;99.90
10175;DHT22;18221;38.704;0.152;2024-01-11T13:01:04;9.00;99.90
10175;DHT22;18221;38.704;0.152;2024-01-11T13:03:34;9.10;99.90
10175;DHT22;18221;38.704;0.152;2024-01-11T13:06:02;9.20;99.90
10175;DHT22;18221;38.704;0.152;2024-01-11T13:08:32;9.20;99.90
10175;DHT22;18221;38.704;0.152;2024-01-11T13:11:02;9.20;99.90
10175;DHT22;18221;38.704;0.152;2024-01-11T13:13:33;9.30;99.90
10175;DHT22;18221;38.704;0.152;2024-01-11T13:16:01;9.20;99.90
10175;DHT22;18221;38.704;0.152;2024-01-11T13:18:31;9.20;99.90
10175;DHT22;18221;38.704;0.152;2024-01-11T13:21:00;9.20;99.90
10175;DHT22;18221;38.704;0.152;2024-01-11T13:23:28;9.40;99.90
10175;DHT22;18221;38.704;0.152;2024-01-11T13:25:58;9.40;99.90
10175;DHT22;18221;38.704;0.152;2024-01-11T13:28:26;9.50;99.90
10175;DHT22;18221;38.704;0.152;2024-01-11T13:30:54;9.40;99.90
10175;DHT22;18221;38.704;0.152;2024-01-11T13:33:23;9.40;99.90
10175;DHT22;18221;38.704;0.152;2024-01-11T13:35:51;9.30;99.90
10175;DHT22;18221;38.704;0.152;2024-01-11T13:38:20;9.40;99.90
10175;DHT22;18221;38.704;0.152;2024-01-11T13:40:48;9.40;99.90
10175;DHT22;18221;38.704;0.152;2024-01-11T13:43:17;9.60;99.90
10175;DHT22;18221;38.704;0.152;2024-01-11T13:45:45;9.60;99.90
10175;DHT22;18221;38.704;0.152;2024-01-11T13:48:13;9.70;99.90
10175;DHT22;18221;38.704;0.152;2024-01-11T13:50:41;9.70;99.90
10175;DHT22;18221;38.704;0.152;2024-01-11T13:53:09;9.70;99.90
10175;DHT22;18221;38.704;0.152;2024-01-11T13:55:37;9.80;99.90
10175;DHT22;18221;38.704;0.152;2024-01-11T13:58:05;9.90;99.90
10175;DHT22;18221;38.704;0.152;2024-01-11T14:00:35;10.00;99.90
10175;DHT22;18221;38.704;0.152;2024-01-11T14:03:03;10.10;99.90
10175;DHT22;18221;38.704;0.152;2024-01-11T14:05:31;10.10;99.90
10175;DHT22;18221;38.704;0.152;2024-01-11T14:07:59;10.20;99.90
10175;DHT22;18221;38.704;0.152;2024-01-11T14:10:31;10.10;99.90
10175;DHT22;18221;38.704;0.152;2024-01-11T14:13:00;10.20;99.90
10175;DHT22;18221;38.704;0.152;2024-01-11T14:15:28;10.30;99.90
10175;DHT22;18221;38.704;0.152;2024-01-11T14:18:01;10.40;99.90
10175;DHT22;18221;38.704;0.152;2024-01-11T14:20:29;10.40;99.90
10175;DHT22;18221;38.704;0.152;2024-01-11T14:22:59;10.40;99.90
10175;DHT22;18221;38.704;0.152;2024-01-11T14:25:27;10.40;99.90
10175;DHT22;18221;38.704;0.152;2024-01-11T14:27:56;10.50;99.90
10175;DHT22;18221;38.704;0.152;2024-01-11T14:30:24;10.40;99.90
10175;DHT22;18221;38.704;0.152;2024-01-11T14:32:52;10.40;99.90
10175;DHT22;18221;38.704;0.152;2024-01-11T14:35:22;10.50;99.90
10175;DHT22;18221;38.704;0.152;2024-01-11T14:37:51;10.50;99.90
10175;DHT22;18221;38.704;0.152;2024-01-11T14:40:20;10.50;99.90
10175;DHT22;18221;38.704;0.152;2024-01-11T14:42:48;10.50;99.90
10175;DHT22;18221;38.704;0.152;2024-01-11T14:45:16;10.50;99.90
10175;DHT22;18221;38.704;0.152;2024-01-11T14:47:44;10.50;99.90
10175;DHT22;18221;38.704;0.152;2024-01-11T14:50:12;10.60;99.90
10175;DHT22;18221;38.704;0.152;2024-01-11T14:52:42;10.60;99.90
10175;DHT22;18221;38.704;0.152;2024-01-11T14:55:10;10.50;99.90
10175;DHT22;18221;38.704;0.152;2024-01-11T14:57:39;10.60;99.90
10175;DHT22;18221;38.704;0.152;2024-01-11T15:00:08;10.60;99.90
10175;DHT22;18221;38.704;0.152;2024-01-11T15:02:37;10.60;99.90
10175;DHT22;18221;38.704;0.152;2024-01-11T15:05:07;11.20;99.90
10175;DHT22;18221;38.704;0.152;2024-01-11T15:07:35;10.30;99.90
10175;DHT22;18221;38.704;0.152;2024-01-11T15:10:05;10.30;99.90
10175;DHT22;18221;38.704;0.152;2024-01-11T15:12:33;10.20;99.90
10175;DHT22;18221;38.704;0.152;2024-01-11T15:15:02;10.30;99.90
10175;DHT22;18221;38.704;0.152;2024-01-11T15:17:32;10.30;99.90
10175;DHT22;18221;38.704;0.152;2024-01-11T15:20:00;10.30;99.90
10175;DHT22;18221;38.704;0.152;2024-01-11T15:22:30;10.20;99.90
10175;DHT22;18221;38.704;0.152;2024-01-11T15:24:58;10.20;99.90
10175;DHT22;18221;38.704;0.152;2024-01-11T15:27:27;10.30;99.90
10175;DHT22;18221;38.704;0.152;2024-01-11T15:29:55;10.30;99.90
10175;DHT22;18221;38.704;0.152;2024-01-11T15:32:23;10.30;99.90
10175;DHT22;18221;38.704;0.152;2024-01-11T15:34:51;10.40;99.90
10175;DHT22;18221;38.704;0.152;2024-01-11T15:37:20;10.30;99.90
10175;DHT22;18221;38.704;0.152;2024-01-11T15:39:49;10.30;99.90
10175;DHT22;18221;38.704;0.152;2024-01-11T15:42:17;10.20;99.90
10175;DHT22;18221;38.704;0.152;2024-01-11T15:44:46;10.10;99.90
10175;DHT22;18221;38.704;0.152;2024-01-11T15:47:14;10.00;99.90
10175;DHT22;18221;38.704;0.152;2024-01-11T15:49:42;9.90;99.90
10175;DHT22;18221;38.704;0.152;2024-01-11T15:52:10;9.90;99.90
10175;DHT22;18221;38.704;0.152;2024-01-11T15:54:38;9.80;99.90
10175;DHT22;18221;38.704;0.152;2024-01-11T15:57:06;9.80;99.90
10175;DHT22;18221;38.704;0.152;2024-01-11T15:59:34;9.80;99.90